sensor_id;sensor_type;location;lat;lon;timestamp;pressure;altitude;pressure_sealevel;temperature
68911;BMP180;55953;51.650;-0.522;2023-04-02T00:03:06;100937.40;;;7.70
68911;BMP180;55953;51.650;-0.522;2023-04-02T00:05:44;100945.00;;;7.70
68911;BMP180;55953;51.650;-0.522;2023-04-02T00:08:28;100947.40;;;7.70
68911;BMP180;55953;51.650;-0.522;2023-04-02T00:11:07;100955.60;;;7.70
68911;BMP180;55953;51.650;-0.522;2023-04-02T00:13:43;100962.40;;;7.78
68911;BMP180;55953;51.650;-0.522;2023-04-02T00:16:16;100964.40;;;7.70
68911;BMP180;55953;51.650;-0.522;2023-04-02T00:18:52;100971.80;;;7.72
68911;BMP180;55953;51.650;-0.522;2023-04-02T00:21:28;100975.60;;;7.70
68911;BMP180;55953;51.650;-0.522;2023-04-02T00:24:09;100971.80;;;7.70
68911;BMP180;55953;51.650;-0.522;2023-04-02T00:26:43;100978.00;;;7.70
68911;BMP180;55953;51.650;-0.522;2023-04-02T00:29:14;100980.20;;;7.70
68911;BMP180;55953;51.650;-0.522;2023-04-02T00:31:47;100982.60;;;7.70
68911;BMP180;55953;51.650;-0.522;2023-04-02T00:34:24;100980.40;;;7.60
68911;BMP180;55953;51.650;-0.522;2023-04-02T00:36:53;100982.20;;;7.60
68911;BMP180;55953;51.650;-0.522;2023-04-02T00:39:25;100986.60;;;7.60
68911;BMP180;55953;51.650;-0.522;2023-04-02T00:41:57;100989.80;;;7.60
68911;BMP180;55953;51.650;-0.522;2023-04-02T00:44:39;100997.00;;;7.56
68911;BMP180;55953;51.650;-0.522;2023-04-02T00:49:50;101003.60;;;7.50
68911;BMP180;55953;51.650;-0.522;2023-04-02T00:52:26;101008.60;;;7.50
68911;BMP180;55953;51.650;-0.522;2023-04-02T00:55:05;101014.40;;;7.50
68911;BMP180;55953;51.650;-0.522;2023-04-02T00:57:34;101010.20;;;7.50
68911;BMP180;55953;51.650;-0.522;2023-04-02T01:00:32;101015.60;;;7.50
68911;BMP180;55953;51.650;-0.522;2023-04-02T01:05:50;101022.60;;;7.40
68911;BMP180;55953;51.650;-0.522;2023-04-02T01:14:44;101030.80;;;7.40
68911;BMP180;55953;51.650;-0.522;2023-04-02T01:18:05;101039.40;;;7.40
68911;BMP180;55953;51.650;-0.522;2023-04-02T01:26:54;101046.20;;;7.40
68911;BMP180;55953;51.650;-0.522;2023-04-02T01:32:20;101060.60;;;7.40
68911;BMP180;55953;51.650;-0.522;2023-04-02T01:34:50;101058.40;;;7.40
68911;BMP180;55953;51.650;-0.522;2023-04-02T01:45:49;101070.80;;;7.40
68911;BMP180;55953;51.650;-0.522;2023-04-02T01:48:22;101069.00;;;7.40
68911;BMP180;55953;51.650;-0.522;2023-04-02T01:50:57;101071.80;;;7.40
68911;BMP180;55953;51.650;-0.522;2023-04-02T01:53:29;101068.80;;;7.40
68911;BMP180;55953;51.650;-0.522;2023-04-02T01:56:01;101068.00;;;7.40
68911;BMP180;55953;51.650;-0.522;2023-04-02T01:58:31;101071.60;;;7.40
68911;BMP180;55953;51.650;-0.522;2023-04-02T02:01:06;101068.20;;;7.40
68911;BMP180;55953;51.650;-0.522;2023-04-02T02:03:39;101072.20;;;7.40
68911;BMP180;55953;51.650;-0.522;2023-04-02T02:06:15;101074.60;;;7.40
68911;BMP180;55953;51.650;-0.522;2023-04-02T02:11:25;101080.80;;;7.40
68911;BMP180;55953;51.650;-0.522;2023-04-02T02:14:08;101083.60;;;7.42
68911;BMP180;55953;51.650;-0.522;2023-04-02T02:16:39;101081.80;;;7.40
68911;BMP180;55953;51.650;-0.522;2023-04-02T02:19:35;101081.20;;;7.40
68911;BMP180;55953;51.650;-0.522;2023-04-02T02:24:59;101087.00;;;7.40
68911;BMP180;55953;51.650;-0.522;2023-04-02T02:28:16;101088.80;;;7.40
68911;BMP180;55953;51.650;-0.522;2023-04-02T02:30:49;101102.40;;;7.42
68911;BMP180;55953;51.650;-0.522;2023-04-02T02:33:42;101096.40;;;7.48
68911;BMP180;55953;51.650;-0.522;2023-04-02T02:36:23;101103.40;;;7.40
68911;BMP180;55953;51.650;-0.522;2023-04-02T02:39:03;101106.40;;;7.40
68911;BMP180;55953;51.650;-0.522;2023-04-02T02:41:59;101111.00;;;7.48
68911;BMP180;55953;51.650;-0.522;2023-04-02T02:44:35;101114.80;;;7.50
68911;BMP180;55953;51.650;-0.522;2023-04-02T02:47:15;101117.20;;;7.50
68911;BMP180;55953;51.650;-0.522;2023-04-02T02:49:51;101116.60;;;7.50
68911;BMP180;55953;51.650;-0.522;2023-04-02T02:52:31;101121.80;;;7.50
68911;BMP180;55953;51.650;-0.522;2023-04-02T02:55:13;101127.80;;;7.50
68911;BMP180;55953;51.650;-0.522;2023-04-02T02:58:00;101130.00;;;7.44
68911;BMP180;55953;51.650;-0.522;2023-04-02T03:00:36;101131.80;;;7.40
68911;BMP180;55953;51.650;-0.522;2023-04-02T03:03:28;101143.40;;;7.50
68911;BMP180;55953;51.650;-0.522;2023-04-02T03:06:07;101150.00;;;7.48
68911;BMP180;55953;51.650;-0.522;2023-04-02T03:14:20;101150.60;;;7.46
68911;BMP180;55953;51.650;-0.522;2023-04-02T03:17:44;101161.80;;;7.50
68911;BMP180;55953;51.650;-0.522;2023-04-02T03:20:03;101161.20;;;7.50
68911;BMP180;55953;51.650;-0.522;2023-04-02T03:23:01;101166.00;;;7.50
68911;BMP180;55953;51.650;-0.522;2023-04-02T03:25:42;101168.40;;;7.50
68911;BMP180;55953;51.650;-0.522;2023-04-02T03:28:22;101175.40;;;7.50
68911;BMP180;55953;51.650;-0.522;2023-04-02T03:31:02;101179.60;;;7.50
68911;BMP180;55953;51.650;-0.522;2023-04-02T03:33:45;101177.80;;;7.40
68911;BMP180;55953;51.650;-0.522;2023-04-02T03:36:31;101180.60;;;7.44
68911;BMP180;55953;51.650;-0.522;2023-04-02T03:41:58;101179.80;;;7.50
68911;BMP180;55953;51.650;-0.522;2023-04-02T03:44:34;101181.00;;;7.50
68911;BMP180;55953;51.650;-0.522;2023-04-02T03:47:15;101183.60;;;7.50
68911;BMP180;55953;51.650;-0.522;2023-04-02T03:49:55;101197.00;;;7.50
68911;BMP180;55953;51.650;-0.522;2023-04-02T03:52:26;101201.20;;;7.50
68911;BMP180;55953;51.650;-0.522;2023-04-02T03:54:59;101201.40;;;7.50
68911;BMP180;55953;51.650;-0.522;2023-04-02T03:57:59;101211.20;;;7.50
68911;BMP180;55953;51.650;-0.522;2023-04-02T04:01:25;101210.60;;;7.50
68911;BMP180;55953;51.650;-0.522;2023-04-02T04:04:04;101218.80;;;7.50
68911;BMP180;55953;51.650;-0.522;2023-04-02T04:06:36;101224.60;;;7.50
68911;BMP180;55953;51.650;-0.522;2023-04-02T04:09:19;101227.00;;;7.50
68911;BMP180;55953;51.650;-0.522;2023-04-02T04:11:59;101230.40;;;7.50
68911;BMP180;55953;51.650;-0.522;2023-04-02T04:14:36;101233.20;;;7.50
68911;BMP180;55953;51.650;-0.522;2023-04-02T04:17:15;101239.40;;;7.50
68911;BMP180;55953;51.650;-0.522;2023-04-02T04:19:50;101241.20;;;7.50
68911;BMP180;55953;51.650;-0.522;2023-04-02T04:22:26;101239.20;;;7.56
68911;BMP180;55953;51.650;-0.522;2023-04-02T04:25:17;101238.40;;;7.60
68911;BMP180;55953;51.650;-0.522;2023-04-02T04:28:06;101247.80;;;7.50
68911;BMP180;55953;51.650;-0.522;2023-04-02T04:33:52;101244.60;;;7.50
68911;BMP180;55953;51.650;-0.522;2023-04-02T04:36:29;101246.20;;;7.50
68911;BMP180;55953;51.650;-0.522;2023-04-02T04:39:17;101248.80;;;7.50
68911;BMP180;55953;51.650;-0.522;2023-04-02T04:41:51;101255.80;;;7.50
68911;BMP180;55953;51.650;-0.522;2023-04-02T04:44:25;101265.20;;;7.50
68911;BMP180;55953;51.650;-0.522;2023-04-02T04:47:06;101263.80;;;7.50
68911;BMP180;55953;51.650;-0.522;2023-04-02T04:49:51;101270.00;;;7.50
68911;BMP180;55953;51.650;-0.522;2023-04-02T04:52:32;101270.20;;;7.42
68911;BMP180;55953;51.650;-0.522;2023-04-02T04:57:48;101283.60;;;7.50
68911;BMP180;55953;51.650;-0.522;2023-04-02T05:01:13;101295.00;;;7.40
68911;BMP180;55953;51.650;-0.522;2023-04-02T05:03:53;101304.60;;;7.40
68911;BMP180;55953;51.650;-0.522;2023-04-02T05:06:42;101306.60;;;7.40
68911;BMP180;55953;51.650;-0.522;2023-04-02T05:09:48;101313.80;;;7.32
68911;BMP180;55953;51.650;-0.522;2023-04-02T05:12:42;101321.60;;;7.30
68911;BMP180;55953;51.650;-0.522;2023-04-02T05:15:38;101321.60;;;7.30
68911;BMP180;55953;51.650;-0.522;2023-04-02T05:18:33;101327.20;;;7.30
68911;BMP180;55953;51.650;-0.522;2023-04-02T05:23:53;101338.20;;;7.20
68911;BMP180;55953;51.650;-0.522;2023-04-02T05:26:39;101341.80;;;7.20
68911;BMP180;55953;51.650;-0.522;2023-04-02T05:34:39;101360.20;;;7.20
68911;BMP180;55953;51.650;-0.522;2023-04-02T05:37:18;101369.00;;;7.20
68911;BMP180;55953;51.650;-0.522;2023-04-02T05:39:58;101366.60;;;7.20
68911;BMP180;55953;51.650;-0.522;2023-04-02T05:42:31;101373.60;;;7.18
68911;BMP180;55953;51.650;-0.522;2023-04-02T05:47:43;101385.80;;;7.20
68911;BMP180;55953;51.650;-0.522;2023-04-02T05:50:23;101390.60;;;7.20
68911;BMP180;55953;51.650;-0.522;2023-04-02T05:53:05;101383.80;;;7.20
68911;BMP180;55953;51.650;-0.522;2023-04-02T05:58:38;101388.40;;;7.20
68911;BMP180;55953;51.650;-0.522;2023-04-02T06:01:34;101397.60;;;7.20
68911;BMP180;55953;51.650;-0.522;2023-04-02T06:07:22;101414.00;;;7.12
68911;BMP180;55953;51.650;-0.522;2023-04-02T06:12:39;101429.60;;;7.20
68911;BMP180;55953;51.650;-0.522;2023-04-02T06:15:14;101430.60;;;7.20
68911;BMP180;55953;51.650;-0.522;2023-04-02T06:18:24;101431.80;;;7.20
68911;BMP180;55953;51.650;-0.522;2023-04-02T06:20:54;101448.20;;;7.10
68911;BMP180;55953;51.650;-0.522;2023-04-02T06:23:38;101443.20;;;7.10
68911;BMP180;55953;51.650;-0.522;2023-04-02T06:26:31;101448.20;;;7.12
68911;BMP180;55953;51.650;-0.522;2023-04-02T06:34:19;101464.00;;;7.10
68911;BMP180;55953;51.650;-0.522;2023-04-02T06:37:14;101466.00;;;7.10
68911;BMP180;55953;51.650;-0.522;2023-04-02T06:39:45;101476.20;;;7.10
68911;BMP180;55953;51.650;-0.522;2023-04-02T06:42:23;101472.80;;;7.10
68911;BMP180;55953;51.650;-0.522;2023-04-02T06:45:23;101483.60;;;7.10
68911;BMP180;55953;51.650;-0.522;2023-04-02T06:48:17;101492.00;;;7.10
68911;BMP180;55953;51.650;-0.522;2023-04-02T06:51:10;101497.40;;;7.10
68911;BMP180;55953;51.650;-0.522;2023-04-02T06:53:44;101491.80;;;7.10
68911;BMP180;55953;51.650;-0.522;2023-04-02T06:58:49;101491.80;;;7.20
68911;BMP180;55953;51.650;-0.522;2023-04-02T07:01:24;101497.40;;;7.20
68911;BMP180;55953;51.650;-0.522;2023-04-02T07:03:55;101503.00;;;7.20
68911;BMP180;55953;51.650;-0.522;2023-04-02T07:06:28;101506.60;;;7.16
68911;BMP180;55953;51.650;-0.522;2023-04-02T07:08:59;101504.20;;;7.20
68911;BMP180;55953;51.650;-0.522;2023-04-02T07:11:27;101499.20;;;7.20
68911;BMP180;55953;51.650;-0.522;2023-04-02T07:13:58;101498.40;;;7.28
68911;BMP180;55953;51.650;-0.522;2023-04-02T07:16:28;101507.80;;;7.30
68911;BMP180;55953;51.650;-0.522;2023-04-02T07:18:58;101514.00;;;7.30
68911;BMP180;55953;51.650;-0.522;2023-04-02T07:21:27;101517.60;;;7.40
68911;BMP180;55953;51.650;-0.522;2023-04-02T07:23:56;101528.80;;;7.40
68911;BMP180;55953;51.650;-0.522;2023-04-02T07:26:26;101518.40;;;7.50
68911;BMP180;55953;51.650;-0.522;2023-04-02T07:28:54;101526.40;;;7.54
68911;BMP180;55953;51.650;-0.522;2023-04-02T07:31:26;101518.60;;;7.52
68911;BMP180;55953;51.650;-0.522;2023-04-02T07:33:57;101525.80;;;7.56
68911;BMP180;55953;51.650;-0.522;2023-04-02T07:36:28;101534.80;;;7.50
68911;BMP180;55953;51.650;-0.522;2023-04-02T07:38:56;101542.00;;;7.58
68911;BMP180;55953;51.650;-0.522;2023-04-02T07:41:24;101552.20;;;7.60
68911;BMP180;55953;51.650;-0.522;2023-04-02T07:43:52;101557.20;;;7.66
68911;BMP180;55953;51.650;-0.522;2023-04-02T07:46:20;101564.00;;;7.60
68911;BMP180;55953;51.650;-0.522;2023-04-02T07:48:48;101572.00;;;7.70
68911;BMP180;55953;51.650;-0.522;2023-04-02T07:51:24;101570.40;;;7.72
68911;BMP180;55953;51.650;-0.522;2023-04-02T07:53:53;101570.40;;;7.80
68911;BMP180;55953;51.650;-0.522;2023-04-02T07:56:24;101574.60;;;7.80
68911;BMP180;55953;51.650;-0.522;2023-04-02T07:58:52;101582.00;;;7.72
68911;BMP180;55953;51.650;-0.522;2023-04-02T08:01:26;101593.40;;;7.72
68911;BMP180;55953;51.650;-0.522;2023-04-02T08:03:56;101599.80;;;7.70
68911;BMP180;55953;51.650;-0.522;2023-04-02T08:06:24;101604.80;;;7.70
68911;BMP180;55953;51.650;-0.522;2023-04-02T08:08:53;101599.20;;;7.60
68911;BMP180;55953;51.650;-0.522;2023-04-02T08:11:21;101597.80;;;7.70
68911;BMP180;55953;51.650;-0.522;2023-04-02T08:13:49;101597.80;;;7.70
68911;BMP180;55953;51.650;-0.522;2023-04-02T08:16:18;101597.80;;;7.70
68911;BMP180;55953;51.650;-0.522;2023-04-02T08:18:46;101599.20;;;7.70
68911;BMP180;55953;51.650;-0.522;2023-04-02T08:21:14;101601.40;;;7.80
68911;BMP180;55953;51.650;-0.522;2023-04-02T08:23:43;101603.20;;;7.90
68911;BMP180;55953;51.650;-0.522;2023-04-02T08:26:17;101610.60;;;7.90
68911;BMP180;55953;51.650;-0.522;2023-04-02T08:28:45;101618.40;;;7.90
68911;BMP180;55953;51.650;-0.522;2023-04-02T08:31:13;101616.80;;;8.00
68911;BMP180;55953;51.650;-0.522;2023-04-02T08:33:41;101624.80;;;8.00
68911;BMP180;55953;51.650;-0.522;2023-04-02T08:36:15;101633.60;;;8.10
68911;BMP180;55953;51.650;-0.522;2023-04-02T08:38:45;101644.20;;;8.10
68911;BMP180;55953;51.650;-0.522;2023-04-02T08:41:22;101640.00;;;8.00
68911;BMP180;55953;51.650;-0.522;2023-04-02T08:47:24;101647.40;;;7.96
68911;BMP180;55953;51.650;-0.522;2023-04-02T08:50:00;101652.80;;;8.00
68911;BMP180;55953;51.650;-0.522;2023-04-02T08:52:36;101652.80;;;7.90
68911;BMP180;55953;51.650;-0.522;2023-04-02T08:55:18;101655.40;;;8.02
68911;BMP180;55953;51.650;-0.522;2023-04-02T09:00:41;101663.20;;;8.10
68911;BMP180;55953;51.650;-0.522;2023-04-02T09:03:27;101666.80;;;8.10
68911;BMP180;55953;51.650;-0.522;2023-04-02T09:05:59;101673.40;;;8.10
68911;BMP180;55953;51.650;-0.522;2023-04-02T09:08:32;101673.00;;;8.10
68911;BMP180;55953;51.650;-0.522;2023-04-02T09:11:18;101682.80;;;8.20
68911;BMP180;55953;51.650;-0.522;2023-04-02T09:13:58;101684.20;;;8.20
68911;BMP180;55953;51.650;-0.522;2023-04-02T09:16:54;101685.60;;;8.20
68911;BMP180;55953;51.650;-0.522;2023-04-02T09:22:30;101694.40;;;8.12
68911;BMP180;55953;51.650;-0.522;2023-04-02T09:25:05;101701.60;;;8.10
68911;BMP180;55953;51.650;-0.522;2023-04-02T09:27:38;101703.60;;;8.10
68911;BMP180;55953;51.650;-0.522;2023-04-02T09:33:05;101703.40;;;8.12
68911;BMP180;55953;51.650;-0.522;2023-04-02T09:43:37;101714.40;;;8.40
68911;BMP180;55953;51.650;-0.522;2023-04-02T09:48:44;101712.80;;;8.62
68911;BMP180;55953;51.650;-0.522;2023-04-02T09:51:19;101714.80;;;8.80
68911;BMP180;55953;51.650;-0.522;2023-04-02T09:54:06;101714.80;;;8.90
68911;BMP180;55953;51.650;-0.522;2023-04-02T09:56:36;101723.40;;;9.00
68911;BMP180;55953;51.650;-0.522;2023-04-02T09:59:15;101727.20;;;9.00
68911;BMP180;55953;51.650;-0.522;2023-04-02T10:04:42;101735.20;;;9.10
68911;BMP180;55953;51.650;-0.522;2023-04-02T10:10:36;101755.80;;;9.10
68911;BMP180;55953;51.650;-0.522;2023-04-02T10:13:16;101763.40;;;9.00
68911;BMP180;55953;51.650;-0.522;2023-04-02T10:16:04;101767.00;;;9.00
68911;BMP180;55953;51.650;-0.522;2023-04-02T10:18:56;101767.00;;;8.90
68911;BMP180;55953;51.650;-0.522;2023-04-02T10:21:30;101765.20;;;9.00
68911;BMP180;55953;51.650;-0.522;2023-04-02T10:23:59;101766.40;;;9.02
68911;BMP180;55953;51.650;-0.522;2023-04-02T10:26:40;101772.40;;;9.20
68911;BMP180;55953;51.650;-0.522;2023-04-02T10:32:11;101769.40;;;9.32
68911;BMP180;55953;51.650;-0.522;2023-04-02T10:40:47;101768.20;;;9.60
68911;BMP180;55953;51.650;-0.522;2023-04-02T10:46:33;101767.80;;;9.40
68911;BMP180;55953;51.650;-0.522;2023-04-02T10:49:37;101776.20;;;9.40
68911;BMP180;55953;51.650;-0.522;2023-04-02T10:52:31;101782.40;;;9.40
68911;BMP180;55953;51.650;-0.522;2023-04-02T10:55:15;101779.80;;;9.40
68911;BMP180;55953;51.650;-0.522;2023-04-02T10:57:45;101779.80;;;9.44
68911;BMP180;55953;51.650;-0.522;2023-04-02T11:00:38;101780.80;;;9.56
68911;BMP180;55953;51.650;-0.522;2023-04-02T11:03:38;101788.40;;;9.60
68911;BMP180;55953;51.650;-0.522;2023-04-02T11:08:54;101802.60;;;9.46
68911;BMP180;55953;51.650;-0.522;2023-04-02T11:11:44;101811.80;;;9.40
68911;BMP180;55953;51.650;-0.522;2023-04-02T11:14:29;101807.00;;;9.40
68911;BMP180;55953;51.650;-0.522;2023-04-02T11:17:00;101815.00;;;9.60
68911;BMP180;55953;51.650;-0.522;2023-04-02T11:19:31;101812.80;;;9.80
68911;BMP180;55953;51.650;-0.522;2023-04-02T11:22:22;101816.80;;;9.70
68911;BMP180;55953;51.650;-0.522;2023-04-02T11:24:53;101812.20;;;9.62
68911;BMP180;55953;51.650;-0.522;2023-04-02T11:27:26;101814.20;;;9.50
68911;BMP180;55953;51.650;-0.522;2023-04-02T11:32:40;101819.60;;;9.60
68911;BMP180;55953;51.650;-0.522;2023-04-02T11:35:37;101822.80;;;9.70
68911;BMP180;55953;51.650;-0.522;2023-04-02T11:41:04;101828.80;;;9.74
68911;BMP180;55953;51.650;-0.522;2023-04-02T11:46:32;101828.00;;;9.70
68911;BMP180;55953;51.650;-0.522;2023-04-02T11:49:36;101836.60;;;9.46
68911;BMP180;55953;51.650;-0.522;2023-04-02T11:52:20;101841.80;;;9.54
68911;BMP180;55953;51.650;-0.522;2023-04-02T11:55:32;101846.60;;;9.58
68911;BMP180;55953;51.650;-0.522;2023-04-02T12:09:44;101842.00;;;10.90
68911;BMP180;55953;51.650;-0.522;2023-04-02T12:12:33;101839.80;;;11.10
68911;BMP180;55953;51.650;-0.522;2023-04-02T12:15:46;101837.80;;;11.40
68911;BMP180;55953;51.650;-0.522;2023-04-02T12:18:21;101844.20;;;11.40
68911;BMP180;55953;51.650;-0.522;2023-04-02T12:20:54;101845.40;;;11.70
68911;BMP180;55953;51.650;-0.522;2023-04-02T12:23:30;101840.00;;;12.10
68911;BMP180;55953;51.650;-0.522;2023-04-02T12:26:11;101844.20;;;12.26
68911;BMP180;55953;51.650;-0.522;2023-04-02T12:28:50;101848.60;;;12.10
68911;BMP180;55953;51.650;-0.522;2023-04-02T12:31:21;101851.60;;;12.10
68911;BMP180;55953;51.650;-0.522;2023-04-02T12:33:52;101854.80;;;12.20
68911;BMP180;55953;51.650;-0.522;2023-04-02T12:36:21;101854.60;;;12.50
68911;BMP180;55953;51.650;-0.522;2023-04-02T12:38:56;101860.40;;;12.48
68911;BMP180;55953;51.650;-0.522;2023-04-02T12:41:31;101869.00;;;12.06
68911;BMP180;55953;51.650;-0.522;2023-04-02T12:44:06;101872.20;;;11.90
68911;BMP180;55953;51.650;-0.522;2023-04-02T12:46:39;101874.20;;;12.00
68911;BMP180;55953;51.650;-0.522;2023-04-02T12:51:51;101888.60;;;12.10
68911;BMP180;55953;51.650;-0.522;2023-04-02T12:54:20;101882.80;;;12.04
68911;BMP180;55953;51.650;-0.522;2023-04-02T12:56:49;101887.20;;;11.80
68911;BMP180;55953;51.650;-0.522;2023-04-02T13:02:16;101889.80;;;11.24
68911;BMP180;55953;51.650;-0.522;2023-04-02T13:04:57;101898.20;;;11.10
68911;BMP180;55953;51.650;-0.522;2023-04-02T13:07:31;101899.20;;;11.20
68911;BMP180;55953;51.650;-0.522;2023-04-02T13:10:22;101902.00;;;11.40
68911;BMP180;55953;51.650;-0.522;2023-04-02T13:13:00;101901.60;;;11.30
68911;BMP180;55953;51.650;-0.522;2023-04-02T13:15:32;101899.00;;;11.40
68911;BMP180;55953;51.650;-0.522;2023-04-02T13:20:42;101905.00;;;11.30
68911;BMP180;55953;51.650;-0.522;2023-04-02T13:23:32;101910.60;;;11.20
68911;BMP180;55953;51.650;-0.522;2023-04-02T13:26:26;101911.00;;;10.98
68911;BMP180;55953;51.650;-0.522;2023-04-02T13:31:44;101901.60;;;11.40
68911;BMP180;55953;51.650;-0.522;2023-04-02T13:34:12;101901.00;;;11.50
68911;BMP180;55953;51.650;-0.522;2023-04-02T13:36:40;101898.80;;;11.70
68911;BMP180;55953;51.650;-0.522;2023-04-02T13:39:08;101899.40;;;11.68
68911;BMP180;55953;51.650;-0.522;2023-04-02T13:41:51;101895.80;;;11.58
68911;BMP180;55953;51.650;-0.522;2023-04-02T13:44:28;101908.20;;;11.40
68911;BMP180;55953;51.650;-0.522;2023-04-02T13:46:57;101908.40;;;11.58
68911;BMP180;55953;51.650;-0.522;2023-04-02T13:49:26;101910.80;;;11.50
68911;BMP180;55953;51.650;-0.522;2023-04-02T13:51:58;101909.60;;;11.30
68911;BMP180;55953;51.650;-0.522;2023-04-02T13:54:52;101914.80;;;11.18
68911;BMP180;55953;51.650;-0.522;2023-04-02T13:57:22;101914.40;;;11.18
68911;BMP180;55953;51.650;-0.522;2023-04-02T13:59:50;101915.80;;;11.30
68911;BMP180;55953;51.650;-0.522;2023-04-02T14:02:23;101918.80;;;11.30
68911;BMP180;55953;51.650;-0.522;2023-04-02T14:05:25;101905.00;;;11.50
68911;BMP180;55953;51.650;-0.522;2023-04-02T14:08:21;101905.80;;;11.80
68911;BMP180;55953;51.650;-0.522;2023-04-02T14:11:52;101898.00;;;11.90
68911;BMP180;55953;51.650;-0.522;2023-04-02T14:19:43;101889.00;;;12.00
68911;BMP180;55953;51.650;-0.522;2023-04-02T14:29:07;101908.40;;;11.54
68911;BMP180;55953;51.650;-0.522;2023-04-02T14:31:55;101914.80;;;11.34
68911;BMP180;55953;51.650;-0.522;2023-04-02T14:34:47;101908.60;;;11.34
68911;BMP180;55953;51.650;-0.522;2023-04-02T14:37:40;101906.00;;;11.70
68911;BMP180;55953;51.650;-0.522;2023-04-02T14:40:22;101900.40;;;12.00
68911;BMP180;55953;51.650;-0.522;2023-04-02T14:43:01;101902.40;;;12.08
68911;BMP180;55953;51.650;-0.522;2023-04-02T14:45:59;101901.80;;;12.00
68911;BMP180;55953;51.650;-0.522;2023-04-02T14:49:52;101911.20;;;11.86
68911;BMP180;55953;51.650;-0.522;2023-04-02T14:52:03;101908.60;;;11.80
68911;BMP180;55953;51.650;-0.522;2023-04-02T14:54:47;101901.80;;;11.80
68911;BMP180;55953;51.650;-0.522;2023-04-02T14:57:23;101902.00;;;12.00
68911;BMP180;55953;51.650;-0.522;2023-04-02T15:02:53;101894.80;;;12.08
68911;BMP180;55953;51.650;-0.522;2023-04-02T15:05:46;101893.40;;;12.40
68911;BMP180;55953;51.650;-0.522;2023-04-02T15:08:21;101901.00;;;12.48
68911;BMP180;55953;51.650;-0.522;2023-04-02T15:11:26;101904.60;;;12.30
68911;BMP180;55953;51.650;-0.522;2023-04-02T15:14:15;101907.20;;;11.86
68911;BMP180;55953;51.650;-0.522;2023-04-02T15:16:45;101896.80;;;11.80
68911;BMP180;55953;51.650;-0.522;2023-04-02T15:19:18;101887.40;;;12.02
68911;BMP180;55953;51.650;-0.522;2023-04-02T15:25:46;101888.00;;;12.42
68911;BMP180;55953;51.650;-0.522;2023-04-02T15:28:31;101898.80;;;12.20
68911;BMP180;55953;51.650;-0.522;2023-04-02T15:31:11;101900.00;;;11.76
68911;BMP180;55953;51.650;-0.522;2023-04-02T15:34:16;101893.20;;;11.76
68911;BMP180;55953;51.650;-0.522;2023-04-02T15:42:45;101884.20;;;12.10
68911;BMP180;55953;51.650;-0.522;2023-04-02T15:45:32;101896.80;;;11.80
68911;BMP180;55953;51.650;-0.522;2023-04-02T15:51:44;101890.00;;;11.48
68911;BMP180;55953;51.650;-0.522;2023-04-02T15:58:04;101883.40;;;11.62
68911;BMP180;55953;51.650;-0.522;2023-04-02T16:06:27;101896.60;;;12.10
68911;BMP180;55953;51.650;-0.522;2023-04-02T16:09:17;101904.20;;;11.70
68911;BMP180;55953;51.650;-0.522;2023-04-02T16:12:00;101912.20;;;11.50
68911;BMP180;55953;51.650;-0.522;2023-04-02T16:14:39;101910.00;;;11.30
68911;BMP180;55953;51.650;-0.522;2023-04-02T16:17:22;101910.80;;;11.20
68911;BMP180;55953;51.650;-0.522;2023-04-02T16:20:15;101901.20;;;11.20
68911;BMP180;55953;51.650;-0.522;2023-04-02T16:22:51;101897.80;;;11.40
68911;BMP180;55953;51.650;-0.522;2023-04-02T16:25:37;101898.20;;;11.30
68911;BMP180;55953;51.650;-0.522;2023-04-02T16:34:46;101911.20;;;11.50
68911;BMP180;55953;51.650;-0.522;2023-04-02T16:38:07;101921.20;;;11.56
68911;BMP180;55953;51.650;-0.522;2023-04-02T16:43:49;101917.80;;;11.30
68911;BMP180;55953;51.650;-0.522;2023-04-02T16:46:25;101923.00;;;11.24
68911;BMP180;55953;51.650;-0.522;2023-04-02T16:58:04;101928.60;;;11.20
68911;BMP180;55953;51.650;-0.522;2023-04-02T17:00:50;101928.60;;;11.10
68911;BMP180;55953;51.650;-0.522;2023-04-02T17:06:59;101942.80;;;11.00
68911;BMP180;55953;51.650;-0.522;2023-04-02T17:09:52;101944.00;;;11.00
68911;BMP180;55953;51.650;-0.522;2023-04-02T17:15:04;101952.80;;;11.10
68911;BMP180;55953;51.650;-0.522;2023-04-02T17:17:47;101954.00;;;11.10
68911;BMP180;55953;51.650;-0.522;2023-04-02T17:20:21;101959.40;;;11.10
68911;BMP180;55953;51.650;-0.522;2023-04-02T17:22:52;101961.80;;;11.10
68911;BMP180;55953;51.650;-0.522;2023-04-02T17:25:31;101960.40;;;11.00
68911;BMP180;55953;51.650;-0.522;2023-04-02T17:28:01;101956.80;;;10.90
68911;BMP180;55953;51.650;-0.522;2023-04-02T17:30:51;101966.80;;;10.80
68911;BMP180;55953;51.650;-0.522;2023-04-02T17:33:21;101971.80;;;10.80
68911;BMP180;55953;51.650;-0.522;2023-04-02T17:36:02;101978.20;;;10.82
68911;BMP180;55953;51.650;-0.522;2023-04-02T17:39:20;101978.60;;;10.80
68911;BMP180;55953;51.650;-0.522;2023-04-02T17:45:16;101980.20;;;10.58
68911;BMP180;55953;51.650;-0.522;2023-04-02T17:48:04;101980.60;;;10.50
68911;BMP180;55953;51.650;-0.522;2023-04-02T17:56:59;101981.60;;;10.20
68911;BMP180;55953;51.650;-0.522;2023-04-02T17:59:59;101987.20;;;10.04
68911;BMP180;55953;51.650;-0.522;2023-04-02T18:03:17;101992.00;;;9.94
68911;BMP180;55953;51.650;-0.522;2023-04-02T18:15:02;102020.20;;;9.60
68911;BMP180;55953;51.650;-0.522;2023-04-02T18:36:09;102049.80;;;8.94
68911;BMP180;55953;51.650;-0.522;2023-04-02T18:39:15;102053.80;;;8.80
68911;BMP180;55953;51.650;-0.522;2023-04-02T18:45:00;102059.20;;;8.60
68911;BMP180;55953;51.650;-0.522;2023-04-02T18:50:33;102068.00;;;8.50
68911;BMP180;55953;51.650;-0.522;2023-04-02T18:53:16;102074.80;;;8.40
68911;BMP180;55953;51.650;-0.522;2023-04-02T18:56:17;102070.20;;;8.30
68911;BMP180;55953;51.650;-0.522;2023-04-02T19:01:31;102085.20;;;8.10
68911;BMP180;55953;51.650;-0.522;2023-04-02T19:04:06;102090.60;;;8.02
68911;BMP180;55953;51.650;-0.522;2023-04-02T19:07:11;102097.40;;;7.96
68911;BMP180;55953;51.650;-0.522;2023-04-02T19:09:43;102101.60;;;7.80
68911;BMP180;55953;51.650;-0.522;2023-04-02T19:12:22;102106.60;;;7.80
68911;BMP180;55953;51.650;-0.522;2023-04-02T19:14:51;102103.00;;;7.70
68911;BMP180;55953;51.650;-0.522;2023-04-02T19:17:41;102104.80;;;7.68
68911;BMP180;55953;51.650;-0.522;2023-04-02T19:20:43;102113.00;;;7.60
68911;BMP180;55953;51.650;-0.522;2023-04-02T19:26:17;102114.40;;;7.50
68911;BMP180;55953;51.650;-0.522;2023-04-02T19:37:37;102139.60;;;7.30
68911;BMP180;55953;51.650;-0.522;2023-04-02T19:40:36;102135.80;;;7.28